Time;durP1;ratioP1;P1;durP2;ratioP2;P2;SDS_P1;SDS_P2;PMS_P1;PMS_P2;Temp;Humidity;BMP_temperature;BMP_pressure;BME280_temperature;BME280_humidity;BME280_pressure;Samples;Min_cycle;Max_cycle;Signal;HPM_P1;HPM_P2
2021/03/08 00:00:39;;;;;;;7.75;2.03;;;25.50;71.10;;;;;;5068812;28;20073;-55
2021/03/08 00:03:08;;;;;;;7.38;2.20;;;25.50;71.40;;;;;;5067617;28;20033;-49
2021/03/08 00:05:36;;;;;;;6.20;2.22;;;25.60;71.00;;;;;;5067279;28;20051;-53
2021/03/08 00:08:03;;;;;;;10.23;2.30;;;25.70;70.90;;;;;;5064794;28;21112;-54
2021/03/08 00:10:31;;;;;;;7.13;1.85;;;25.70;70.90;;;;;;5072606;28;20036;-63
2021/03/08 00:12:59;;;;;;;4.45;2.05;;;25.70;70.80;;;;;;5073614;28;20477;-55
2021/03/08 00:15:27;;;;;;;8.95;2.40;;;25.70;70.80;;;;;;5072071;28;20024;-52
2021/03/08 00:17:54;;;;;;;7.93;2.10;;;25.80;71.00;;;;;;5068235;28;20039;-52
2021/03/08 00:20:24;;;;;;;7.82;2.22;;;25.80;70.90;;;;;;5071153;28;20028;-58
2021/03/08 00:22:51;;;;;;;9.38;2.38;;;25.80;70.70;;;;;;5072929;28;20020;-55
2021/03/08 00:25:23;;;;;;;5.07;2.03;;;25.80;71.00;;;;;;5072934;28;20032;-58
2021/03/08 00:27:51;;;;;;;3.83;1.73;;;26.00;70.40;;;;;;5069021;28;20089;-59
2021/03/08 00:30:19;;;;;;;4.90;2.15;;;26.00;70.30;;;;;;5069125;28;20038;-60
2021/03/08 00:32:47;;;;;;;5.55;1.90;;;26.20;69.80;;;;;;5073082;28;20039;-66
2021/03/08 00:35:15;;;;;;;4.18;2.13;;;26.20;69.80;;;;;;5072771;28;20059;-57
2021/03/08 00:37:43;;;;;;;4.70;1.98;;;26.20;69.90;;;;;;5070293;28;20482;-49
2021/03/08 00:40:17;;;;;;;4.28;1.85;;;26.10;70.00;;;;;;5068604;28;20089;-52
2021/03/08 00:42:54;;;;;;;6.72;2.10;;;26.20;69.70;;;;;;5073738;28;20109;-57
2021/03/08 00:45:23;;;;;;;5.38;2.03;;;26.30;69.50;;;;;;5073024;28;20486;-57
2021/03/08 00:47:50;;;;;;;4.45;1.95;;;26.40;69.30;;;;;;5069832;28;20032;-57
2021/03/08 00:50:27;;;;;;;7.47;2.45;;;26.50;69.00;;;;;;5069188;28;20028;-57
2021/03/08 00:52:55;;;;;;;4.00;1.90;;;26.70;68.30;;;;;;5071800;28;20078;-56
2021/03/08 00:55:23;;;;;;;8.50;2.05;;;26.70;67.90;;;;;;5072487;28;20029;-60
2021/03/08 00:57:50;;;;;;;7.50;2.20;;;26.80;68.00;;;;;;5067755;28;20028;-53
2021/03/08 01:00:24;;;;;;;5.55;2.03;;;26.90;68.00;;;;;;5069128;28;20025;-57
2021/03/08 01:02:52;;;;;;;5.68;1.98;;;26.80;68.00;;;;;;5069647;28;20023;-55
2021/03/08 01:05:21;;;;;;;14.00;2.45;;;26.90;67.90;;;;;;5071783;28;20555;-56
2021/03/08 01:07:49;;;;;;;7.18;2.13;;;27.10;67.20;;;;;;5068416;28;20068;-58
2021/03/08 01:10:21;;;;;;;5.80;2.40;;;27.00;67.40;;;;;;5068633;28;20343;-68
2021/03/08 01:12:48;;;;;;;;;;;27.00;67.30;;;;;;5071241;28;20051;-59
2021/03/08 01:15:16;;;;;;;10.77;2.08;;;27.10;67.00;;;;;;5069618;28;19954;-60
2021/03/08 01:17:43;;;;;;;4.63;2.08;;;27.20;66.80;;;;;;5069352;28;20391;-55
2021/03/08 01:20:16;;;;;;;8.27;2.75;;;27.20;66.70;;;;;;5065892;28;20974;-64
2021/03/08 01:22:45;;;;;;;8.13;2.35;;;27.30;66.40;;;;;;5071494;28;20037;-52
2021/03/08 01:25:17;;;;;;;7.85;1.85;;;27.20;66.90;;;;;;5071542;28;20057;-53
2021/03/08 01:27:44;;;;;;;;;;;27.20;66.80;;;;;;5068281;28;20395;-51
2021/03/08 01:30:14;;;;;;;4.07;1.90;;;27.20;66.80;;;;;;5067495;28;19908;-55
2021/03/08 01:32:42;;;;;;;7.28;1.92;;;27.20;67.10;;;;;;5070581;28;20029;-62
2021/03/08 01:35:10;;;;;;;4.45;1.70;;;27.20;67.00;;;;;;5071563;28;20020;-60
2021/03/08 01:37:38;;;;;;;5.97;1.92;;;27.20;67.20;;;;;;5069856;28;20109;-50
2021/03/08 01:40:11;;;;;;;4.97;1.65;;;27.10;67.30;;;;;;5063587;28;20487;-53
2021/03/08 01:42:40;;;;;;;3.85;1.70;;;27.10;67.60;;;;;;5069853;28;20029;-57
2021/03/08 01:45:11;;;;;;;3.00;1.60;;;27.30;66.80;;;;;;5071092;28;20079;-54
2021/03/08 01:47:39;;;;;;;4.03;1.73;;;27.50;66.40;;;;;;5069867;28;20028;-52
2021/03/08 01:50:12;;;;;;;;;;;27.40;66.80;;;;;;5067866;28;20028;-53
2021/03/08 01:52:40;;;;;;;7.05;1.98;;;27.50;66.50;;;;;;5070322;28;19912;-50
2021/03/08 01:55:08;;;;;;;9.23;2.33;;;27.60;66.30;;;;;;5070898;28;20021;-48
2021/03/08 01:57:36;;;;;;;3.42;1.55;;;27.60;66.00;;;;;;5067529;28;20032;-49
2021/03/08 02:00:07;;;;;;;7.82;2.33;;;27.40;66.60;;;;;;5065041;28;20028;-59
2021/03/08 02:02:35;;;;;;;18.55;4.00;;;27.60;66.30;;;;;;5069834;28;20029;-67
2021/03/08 02:05:04;;;;;;;25.67;5.30;;;27.70;65.90;;;;;;5070483;28;20120;-58
2021/03/08 02:07:31;;;;;;;22.10;4.50;;;27.90;65.60;;;;;;5072007;28;20024;-59
2021/03/08 02:09:58;;;;;;;14.70;4.13;;;27.90;65.20;;;;;;5064565;28;20072;-63
2021/03/08 02:12:49;;;;;;;13.02;4.00;;;27.90;65.30;;;;;;5070065;28;20379;-57
2021/03/08 02:15:32;;;;;;;13.75;3.75;;;27.90;65.40;;;;;;5041951;28;20518;-65
2021/03/08 02:17:59;;;;;;;17.75;3.13;;;27.90;65.60;;;;;;5065392;28;21047;-55
2021/03/08 02:20:41;;;;;;;21.80;3.80;;;28.00;65.50;;;;;;5065171;28;20028;-61
2021/03/08 02:23:24;;;;;;;11.93;2.60;;;27.80;66.20;;;;;;5067947;28;20442;-64
2021/03/08 02:26:28;;;;;;;8.27;2.70;;;27.80;66.40;;;;;;5069900;28;20437;-60
2021/03/08 02:29:24;;;;;;;12.43;2.85;;;28.00;66.00;;;;;;5061964;28;20471;-65
2021/03/08 02:31:55;;;;;;;11.38;2.95;;;28.00;65.30;;;;;;5069430;28;20033;-62
2021/03/08 02:34:30;;;;;;;10.27;3.08;;;28.20;65.30;;;;;;5070319;28;20085;-53
2021/03/08 02:37:06;;;;;;;6.80;2.60;;;28.10;65.10;;;;;;5070463;28;20035;-51
2021/03/08 02:39:39;;;;;;;10.30;2.35;;;28.10;65.40;;;;;;5063571;28;20086;-60
2021/03/08 02:42:12;;;;;;;13.95;2.08;;;28.10;65.30;;;;;;5069484;28;20031;-68
2021/03/08 02:44:42;;;;;;;13.02;3.08;;;28.30;64.80;;;;;;5068429;28;20025;-58
2021/03/08 02:47:13;;;;;;;7.88;2.80;;;28.30;65.20;;;;;;5067079;28;20058;-58
2021/03/08 02:49:43;;;;;;;10.90;2.50;;;28.30;64.70;;;;;;5063601;28;20040;-67
2021/03/08 02:52:14;;;;;;;9.55;2.38;;;28.30;64.60;;;;;;5071407;28;20063;-58
2021/03/08 02:54:45;;;;;;;6.25;2.05;;;28.40;64.70;;;;;;5071272;28;20104;-54
2021/03/08 02:57:13;;;;;;;;;;;28.50;64.00;;;;;;5071581;28;20086;-54
2021/03/08 02:59:50;;;;;;;8.45;2.60;;;28.60;63.90;;;;;;5071407;28;20220;-59
2021/03/08 03:02:19;;;;;;;8.93;2.80;;;28.70;63.90;;;;;;5071860;28;20021;-53
2021/03/08 03:04:49;;;;;;;11.95;2.28;;;28.50;63.90;;;;;;5072089;28;20052;-56
2021/03/08 03:07:19;;;;;;;4.90;1.85;;;28.40;64.40;;;;;;5072200;28;20067;-56
2021/03/08 03:09:47;;;;;;;6.85;2.55;;;28.40;64.30;;;;;;5072243;28;20036;-60
2021/03/08 03:12:18;;;;;;;5.70;2.20;;;28.50;63.70;;;;;;5071913;28;20048;-60
2021/03/08 03:14:47;;;;;;;6.95;2.50;;;28.50;63.00;;;;;;5072238;28;20032;-57
2021/03/08 03:17:18;;;;;;;9.68;2.38;;;28.50;63.60;;;;;;5072073;28;20074;-54
2021/03/08 03:19:52;;;;;;;6.15;2.45;;;28.40;64.00;;;;;;5072058;28;20456;-52
2021/03/08 03:22:25;;;;;;;8.23;2.13;;;28.40;63.70;;;;;;5069962;28;20071;-57
2021/03/08 03:24:56;;;;;;;8.60;2.47;;;28.40;64.30;;;;;;5071762;28;20023;-65
2021/03/08 03:27:23;;;;;;;;;;;28.30;62.70;;;;;;5072152;28;20029;-64
2021/03/08 03:29:53;;;;;;;5.35;2.13;;;28.30;64.20;;;;;;5071523;28;19991;-63
2021/03/08 03:32:22;;;;;;;5.55;2.13;;;28.40;64.20;;;;;;5071728;28;20028;-59
2021/03/08 03:34:50;;;;;;;9.40;2.05;;;28.20;64.50;;;;;;5071588;28;20134;-54
2021/03/08 03:37:24;;;;;;;9.15;2.80;;;28.10;65.00;;;;;;5071567;28;20036;-65
2021/03/08 03:39:51;;;;;;;7.10;2.10;;;28.00;65.30;;;;;;5072796;28;20095;-54
2021/03/08 03:42:19;;;;;;;8.85;2.38;;;28.00;64.10;;;;;;5071395;28;20036;-55
2021/03/08 03:44:47;;;;;;;9.05;2.25;;;28.00;65.20;;;;;;5071808;28;20040;-57
2021/03/08 03:47:15;;;;;;;6.35;1.95;;;27.90;64.40;;;;;;5070884;28;20016;-59
2021/03/08 03:49:43;;;;;;;7.90;2.40;;;27.90;65.80;;;;;;5071628;28;20036;-65
2021/03/08 03:52:10;;;;;;;5.88;2.15;;;27.80;66.30;;;;;;5071659;28;20037;-55
2021/03/08 03:54:38;;;;;;;9.40;1.65;;;27.70;66.40;;;;;;5071917;28;20032;-57
2021/03/08 03:57:11;;;;;;;9.40;2.40;;;27.80;66.50;;;;;;5071759;28;20021;-51
2021/03/08 03:59:52;;;;;;;6.70;1.98;;;27.70;66.40;;;;;;5071826;28;20031;-59
2021/03/08 04:02:38;;;;;;;10.65;2.45;;;27.80;66.10;;;;;;5071653;28;20082;-58
2021/03/08 04:05:07;;;;;;;10.18;2.10;;;27.70;66.40;;;;;;5070671;28;20048;-52
2021/03/08 04:07:40;;;;;;;6.97;2.30;;;27.70;66.10;;;;;;5071622;28;20024;-59
2021/03/08 04:10:11;;;;;;;6.53;2.28;;;27.80;65.90;;;;;;5070804;28;20430;-52
2021/03/08 04:12:44;;;;;;;3.90;1.60;;;27.70;66.10;;;;;;5071564;28;20391;-57
2021/03/08 04:15:12;;;;;;;9.85;2.20;;;27.70;65.90;;;;;;5071742;28;20092;-57
2021/03/08 04:17:43;;;;;;;7.75;2.58;;;27.60;66.70;;;;;;5071632;28;20028;-61
2021/03/08 04:20:17;;;;;;;7.80;2.10;;;27.60;66.40;;;;;;5071433;28;20025;-59
2021/03/08 04:22:57;;;;;;;3.42;1.45;;;27.60;66.70;;;;;;5071654;28;20070;-59
2021/03/08 04:25:27;;;;;;;4.68;1.77;;;27.60;66.90;;;;;;5071603;28;20025;-50
2021/03/08 04:27:57;;;;;;;9.38;2.00;;;27.50;67.10;;;;;;5070178;28;20032;-60
2021/03/08 04:30:26;;;;;;;8.00;1.73;;;27.40;67.70;;;;;;5071430;28;20386;-51
2021/03/08 04:32:54;;;;;;;7.47;2.28;;;27.40;68.00;;;;;;5070899;28;20101;-57
2021/03/08 04:35:28;;;;;;;4.80;1.60;;;27.40;67.90;;;;;;5071127;28;20040;-52
2021/03/08 04:37:59;;;;;;;4.90;1.50;;;27.40;67.80;;;;;;5071654;28;20029;-53
2021/03/08 04:40:27;;;;;;;4.50;1.67;;;27.40;67.70;;;;;;5070937;28;20025;-49
2021/03/08 04:42:56;;;;;;;5.65;1.55;;;27.50;67.30;;;;;;5070796;28;20028;-51
2021/03/08 04:45:23;;;;;;;5.78;2.00;;;27.40;67.30;;;;;;5071311;28;20033;-54
2021/03/08 04:47:51;;;;;;;5.65;2.05;;;27.40;67.60;;;;;;5070671;28;20028;-56
2021/03/08 04:50:19;;;;;;;4.70;2.00;;;27.40;67.20;;;;;;5070488;28;20111;-52
2021/03/08 04:52:52;;;;;;;5.85;1.80;;;27.50;67.50;;;;;;5071126;28;20040;-53
2021/03/08 04:55:24;;;;;;;2.58;1.80;;;27.40;67.50;;;;;;5054183;28;20391;-55
2021/03/08 04:57:51;;;;;;;4.53;1.98;;;27.50;67.30;;;;;;5054834;28;20131;-54
2021/03/08 05:00:20;;;;;;;8.35;2.10;;;27.40;67.50;;;;;;5054014;28;20028;-55
2021/03/08 05:02:51;;;;;;;9.27;2.55;;;27.40;67.40;;;;;;5054596;28;20024;-51
2021/03/08 05:05:23;;;;;;;6.00;1.88;;;27.40;67.80;;;;;;5054369;28;20067;-53
2021/03/08 05:07:57;;;;;;;6.47;2.55;;;27.20;68.40;;;;;;5071121;28;20064;-51
2021/03/08 05:10:28;;;;;;;4.82;2.17;;;27.20;68.30;;;;;;5074048;28;20021;-54
2021/03/08 05:12:57;;;;;;;8.25;3.88;;;27.10;68.70;;;;;;5074374;28;20052;-51
2021/03/08 05:15:26;;;;;;;8.20;5.50;;;27.10;69.10;;;;;;5074199;28;20078;-56
2021/03/08 05:17:59;;;;;;;9.88;5.75;;;27.00;69.40;;;;;;5074542;28;20021;-53
2021/03/08 05:20:28;;;;;;;8.07;5.25;;;26.90;69.90;;;;;;5073333;28;20138;-53
2021/03/08 05:22:56;;;;;;;11.02;6.45;;;26.80;70.20;;;;;;5074110;28;20029;-53
2021/03/08 05:25:25;;;;;;;8.98;6.25;;;26.80;70.30;;;;;;5073452;28;20040;-53
2021/03/08 05:27:53;;;;;;;10.20;7.38;;;26.80;70.50;;;;;;5073708;28;20059;-61
2021/03/08 05:30:23;;;;;;;12.95;6.57;;;26.80;70.30;;;;;;5073610;28;20075;-68
2021/03/08 05:33:09;;;;;;;11.18;7.47;;;26.80;70.60;;;;;;5074225;28;20143;-63
2021/03/08 05:35:37;;;;;;;10.35;7.30;;;26.70;70.40;;;;;;5074545;28;20504;-63
2021/03/08 05:38:05;;;;;;;13.05;7.93;;;26.70;71.30;;;;;;5073897;28;20082;-57
2021/03/08 05:40:46;;;;;;;9.20;8.30;;;26.70;70.50;;;;;;5073232;28;20020;-73
2021/03/08 05:43:18;;;;;;;10.88;8.77;;;26.70;71.10;;;;;;5073143;28;20025;-66
2021/03/08 05:46:07;;;;;;;16.92;10.40;;;26.80;70.70;;;;;;5073791;28;20384;-60
2021/03/08 05:48:53;;;;;;;11.20;9.32;;;26.70;71.50;;;;;;5073323;28;20515;-66
2021/03/08 05:51:41;;;;;;;12.27;10.85;;;26.80;71.00;;;;;;5070500;28;20024;-64
2021/03/08 05:54:43;;;;;;;12.55;11.25;;;26.80;71.10;;;;;;5073981;28;20028;-61
2021/03/08 05:57:34;;;;;;;15.55;11.05;;;26.70;71.90;;;;;;5053975;28;20036;-58
2021/03/08 06:00:45;;;;;;;17.17;11.45;;;26.70;71.50;;;;;;5073629;28;20475;-59
2021/03/08 06:04:00;;;;;;;13.13;10.30;;;26.70;72.50;;;;;;5064990;28;20051;-63
2021/03/08 06:06:33;;;;;;;13.43;10.25;;;26.70;72.20;;;;;;5059520;28;20147;-60
2021/03/08 06:09:22;;;;;;;10.52;9.05;;;26.80;72.70;;;;;;5070353;28;20070;-60
2021/03/08 06:12:04;;;;;;;12.38;8.25;;;26.80;72.70;;;;;;5068214;28;20474;-60
2021/03/08 06:14:58;;;;;;;13.70;7.25;;;26.70;73.80;;;;;;5069608;28;20098;-60
2021/03/08 06:17:25;;;;;;;10.02;8.65;;;26.60;72.60;;;;;;5064965;28;20122;-57
2021/03/08 06:19:56;;;;;;;15.57;8.18;;;26.60;73.00;;;;;;5067387;28;20033;-61
2021/03/08 06:22:24;;;;;;;7.95;6.78;;;26.60;72.80;;;;;;5067912;28;20021;-51
2021/03/08 06:24:52;;;;;;;9.02;7.65;;;26.50;73.20;;;;;;5066333;28;20033;-59
2021/03/08 06:27:21;;;;;;;12.25;7.70;;;26.50;73.20;;;;;;5070279;28;20036;-58
2021/03/08 06:29:49;;;;;;;8.18;6.57;;;26.40;73.90;;;;;;5068564;28;20044;-65
2021/03/08 06:32:16;;;;;;;13.13;7.10;;;26.40;74.00;;;;;;5068974;28;20044;-72
2021/03/08 06:34:44;;;;;;;11.52;6.00;;;26.30;73.90;;;;;;5070086;28;20036;-65
2021/03/08 06:37:13;;;;;;;9.40;5.85;;;26.30;74.20;;;;;;5069806;28;20035;-57
2021/03/08 06:39:48;;;;;;;9.95;5.82;;;26.30;74.20;;;;;;5070762;28;20021;-60
2021/03/08 06:42:19;;;;;;;9.07;5.38;;;26.30;74.40;;;;;;5069832;28;20024;-66
2021/03/08 06:44:48;;;;;;;6.45;5.07;;;26.30;74.50;;;;;;5069438;28;20442;-57
2021/03/08 06:47:16;;;;;;;7.53;5.40;;;26.30;74.70;;;;;;5063261;28;20028;-55
2021/03/08 06:49:45;;;;;;;9.63;6.28;;;26.20;74.80;;;;;;5069528;28;20064;-58
2021/03/08 06:52:21;;;;;;;8.07;5.20;;;26.10;75.00;;;;;;5066393;28;20027;-57
2021/03/08 06:55:02;;;;;;;13.35;6.63;;;26.10;75.20;;;;;;5069597;28;20509;-57
2021/03/08 06:57:32;;;;;;;6.97;4.72;;;26.00;75.30;;;;;;5067626;28;20103;-56
2021/03/08 07:00:01;;;;;;;8.35;5.05;;;26.00;75.30;;;;;;5070173;28;20037;-52
2021/03/08 07:02:40;;;;;;;16.08;6.10;;;26.00;75.40;;;;;;5068759;28;20025;-57
2021/03/08 07:05:13;;;;;;;7.15;4.82;;;26.00;75.70;;;;;;5066999;28;20036;-60
2021/03/08 07:07:59;;;;;;;7.18;3.88;;;25.90;75.70;;;;;;5068616;28;20023;-62
2021/03/08 07:10:34;;;;;;;14.73;6.28;;;25.80;72.00;;;;;;5063068;28;20101;-62
2021/03/08 07:13:02;;;;;;;9.50;8.25;;;25.70;76.30;;;;;;5065003;28;20086;-66
2021/03/08 07:15:30;;;;;;;7.13;5.57;;;25.70;76.00;;;;;;5068818;28;20111;-65
2021/03/08 07:18:08;;;;;;;11.70;8.52;;;25.70;70.90;;;;;;5067197;28;20024;-62
2021/03/08 07:20:35;;;;;;;21.65;15.05;;;25.70;75.60;;;;;;5062503;28;20046;-52
2021/03/08 07:23:03;;;;;;;27.58;18.52;;;25.80;73.90;;;;;;5071268;28;20467;-52
2021/03/08 07:25:32;;;;;;;19.33;13.63;;;25.80;74.60;;;;;;5071322;28;20061;-58
2021/03/08 07:28:04;;;;;;;13.18;11.82;;;25.90;74.00;;;;;;5071284;28;20166;-53
2021/03/08 07:30:36;;;;;;;13.60;12.27;;;25.90;75.30;;;;;;5071075;28;20024;-53
2021/03/08 07:33:06;;;;;;;12.93;6.10;;;25.90;76.00;;;;;;5069939;28;20115;-54
2021/03/08 07:35:42;;;;;;;24.55;14.93;;;25.90;74.10;;;;;;5070201;28;20028;-60
2021/03/08 07:38:15;;;;;;;22.40;11.63;;;25.90;74.60;;;;;;5071872;28;20025;-60
2021/03/08 07:40:45;;;;;;;9.75;5.15;;;25.90;74.40;;;;;;5071733;28;20033;-61
2021/03/08 07:43:23;;;;;;;7.47;5.40;;;25.90;76.10;;;;;;5071831;28;20029;-56
2021/03/08 07:45:51;;;;;;;15.63;6.30;;;25.90;76.30;;;;;;5071008;28;20111;-56
2021/03/08 07:48:20;;;;;;;12.35;7.82;;;25.90;76.00;;;;;;5071566;28;20041;-60
2021/03/08 07:50:52;;;;;;;14.02;6.55;;;25.90;77.10;;;;;;5072077;28;20382;-55
2021/03/08 07:53:34;;;;;;;17.17;7.50;;;26.00;77.70;;;;;;5071984;28;20032;-58
2021/03/08 07:56:05;;;;;;;;;;;25.90;78.60;;;;;;5072151;28;20021;-55
2021/03/08 07:58:34;;;;;;;11.13;7.90;;;26.00;79.70;;;;;;5071284;28;19904;-61
2021/03/08 08:01:07;;;;;;;11.52;8.07;;;26.00;79.40;;;;;;5071391;28;20031;-53
2021/03/08 08:03:38;;;;;;;16.75;8.27;;;26.00;79.90;;;;;;5071296;28;20017;-58
2021/03/08 08:06:10;;;;;;;13.50;7.93;;;26.00;80.20;;;;;;5071511;28;20105;-59
2021/03/08 08:08:43;;;;;;;13.93;6.05;;;26.00;80.00;;;;;;5070058;28;20040;-56
2021/03/08 08:11:14;;;;;;;7.97;5.43;;;26.00;80.10;;;;;;5071015;28;20028;-54
2021/03/08 08:13:48;;;;;;;7.55;4.05;;;26.00;79.80;;;;;;5071163;28;20047;-50
2021/03/08 08:16:18;;;;;;;15.38;3.97;;;26.00;77.70;;;;;;5071511;28;20472;-54
2021/03/08 08:18:47;;;;;;;7.15;3.47;;;26.00;78.10;;;;;;5054013;28;20025;-62
2021/03/08 08:21:21;;;;;;;8.20;3.17;;;26.00;77.90;;;;;;5071878;28;20467;-56
2021/03/08 08:23:58;;;;;;;11.70;3.33;;;25.90;78.10;;;;;;5071335;28;20474;-59
2021/03/08 08:26:26;;;;;;;8.70;3.05;;;25.90;78.10;;;;;;5071926;28;20459;-60
2021/03/08 08:28:54;;;;;;;13.50;3.00;;;25.90;78.90;;;;;;5072066;28;20207;-62
2021/03/08 08:31:22;;;;;;;14.07;3.72;;;25.90;78.80;;;;;;5075481;28;20052;-56
2021/03/08 08:33:50;;;;;;;15.32;3.80;;;25.90;78.80;;;;;;5074629;28;20098;-64
2021/03/08 08:36:28;;;;;;;14.60;3.15;;;26.00;79.60;;;;;;5074742;28;20419;-63
2021/03/08 08:38:55;;;;;;;9.27;2.63;;;26.00;75.90;;;;;;5073622;28;20036;-62
2021/03/08 08:41:25;;;;;;;12.93;3.20;;;26.00;77.70;;;;;;5074937;28;20016;-57
2021/03/08 08:44:14;;;;;;;10.48;2.83;;;26.00;77.80;;;;;;5074405;28;20528;-56
2021/03/08 08:46:46;;;;;;;9.50;2.53;;;26.00;78.20;;;;;;5074827;28;20115;-53
2021/03/08 08:49:20;;;;;;;9.45;2.10;;;26.00;77.20;;;;;;5074671;28;20040;-50
2021/03/08 08:51:58;;;;;;;8.68;2.13;;;26.00;76.20;;;;;;5074820;28;20044;-57
2021/03/08 08:54:29;;;;;;;10.68;1.98;;;25.90;77.90;;;;;;5074558;28;20039;-62
2021/03/08 08:57:12;;;;;;;16.50;2.25;;;25.90;77.50;;;;;;5074360;28;20060;-63
2021/03/08 08:59:48;;;;;;;8.57;2.63;;;25.90;76.80;;;;;;5074598;28;20070;-55
2021/03/08 09:02:19;;;;;;;5.38;2.42;;;25.90;76.30;;;;;;5073996;28;20029;-54
2021/03/08 09:04:46;;;;;;;8.82;2.15;;;25.80;76.30;;;;;;5074251;28;20048;-58
2021/03/08 09:07:21;;;;;;;7.07;2.50;;;25.80;77.00;;;;;;5074335;28;20103;-55
2021/03/08 09:09:51;;;;;;;6.55;1.92;;;25.80;76.80;;;;;;5074197;28;20047;-56
2021/03/08 09:12:33;;;;;;;13.07;2.30;;;25.80;76.90;;;;;;5073860;28;20025;-55
2021/03/08 09:15:08;;;;;;;6.30;1.58;;;25.80;78.20;;;;;;5074380;28;20021;-55
2021/03/08 09:17:51;;;;;;;4.90;1.67;;;25.90;78.60;;;;;;5074937;28;20029;-63
2021/03/08 09:20:27;;;;;;;12.50;2.05;;;25.80;78.20;;;;;;5074097;28;20027;-56
2021/03/08 09:23:02;;;;;;;11.88;2.72;;;25.80;79.10;;;;;;5073924;28;20509;-62
2021/03/08 09:25:32;;;;;;;8.00;2.10;;;25.90;80.80;;;;;;5074212;28;20024;-64
2021/03/08 09:28:00;;;;;;;11.45;1.85;;;25.80;80.20;;;;;;5074388;28;20032;-48
2021/03/08 09:30:33;;;;;;;11.18;2.88;;;25.90;79.20;;;;;;5074428;28;20111;-51
2021/03/08 09:33:09;;;;;;;4.53;2.08;;;25.80;79.50;;;;;;5074266;28;20094;-62
2021/03/08 09:35:44;;;;;;;5.88;2.08;;;25.80;79.60;;;;;;5074406;28;20029;-52
2021/03/08 09:38:24;;;;;;;6.95;2.05;;;25.80;78.10;;;;;;5075123;28;20031;-62
2021/03/08 09:40:55;;;;;;;9.95;2.30;;;25.80;78.80;;;;;;5072390;28;20108;-51
2021/03/08 09:43:26;;;;;;;10.75;2.58;;;25.70;78.50;;;;;;5072861;28;20032;-48
2021/03/08 09:46:16;;;;;;;13.25;2.63;;;25.70;78.20;;;;;;5074205;28;20025;-47
2021/03/08 09:48:51;;;;;;;16.35;3.15;;;25.70;77.80;;;;;;5073947;28;20489;-49
2021/03/08 09:51:20;;;;;;;6.93;2.20;;;25.70;78.50;;;;;;5073883;28;20051;-53
2021/03/08 09:53:49;;;;;;;5.78;1.50;;;25.70;77.60;;;;;;5073879;28;20066;-53
2021/03/08 09:56:21;;;;;;;8.10;2.20;;;25.70;78.30;;;;;;5065473;28;20027;-48
2021/03/08 09:59:11;;;;;;;5.95;2.03;;;25.70;78.60;;;;;;5067397;28;20021;-55
2021/03/08 10:01:38;;;;;;;7.13;2.30;;;25.70;78.90;;;;;;5068986;28;20079;-61
2021/03/08 10:04:06;;;;;;;9.40;2.70;;;25.70;78.80;;;;;;5070343;28;20041;-54
2021/03/08 10:06:34;;;;;;;19.02;3.85;;;25.60;78.70;;;;;;5063892;28;20086;-53
2021/03/08 10:09:23;;;;;;;10.00;3.30;;;25.60;78.60;;;;;;5067098;28;20041;-51
2021/03/08 10:12:01;;;;;;;7.50;3.13;;;25.70;78.50;;;;;;5070627;28;20036;-50
2021/03/08 10:14:31;;;;;;;9.70;2.78;;;25.60;78.50;;;;;;5071028;28;20029;-51
2021/03/08 10:17:13;;;;;;;10.38;2.95;;;25.60;78.50;;;;;;5064769;28;20016;-52
2021/03/08 10:19:57;;;;;;;15.65;3.45;;;25.60;79.00;;;;;;5068673;28;20025;-54
2021/03/08 10:22:40;;;;;;;8.30;3.03;;;25.60;78.80;;;;;;5070089;28;20025;-64
2021/03/08 10:25:22;;;;;;;9.93;3.15;;;25.60;78.80;;;;;;5069059;28;20058;-59
2021/03/08 10:28:05;;;;;;;10.32;3.53;;;25.50;78.60;;;;;;5063000;28;20032;-54
2021/03/08 10:30:34;;;;;;;12.50;3.63;;;25.50;78.10;;;;;;5068079;28;20043;-53
2021/03/08 10:33:08;;;;;;;8.35;3.63;;;25.60;78.60;;;;;;5070746;28;20025;-56
2021/03/08 10:35:43;;;;;;;11.38;3.28;;;25.50;78.60;;;;;;5070459;28;20027;-56
2021/03/08 10:38:12;;;;;;;9.63;3.38;;;25.50;78.10;;;;;;5067126;28;20860;-58
2021/03/08 10:40:42;;;;;;;8.02;2.72;;;25.50;79.00;;;;;;5069718;28;20035;-59
2021/03/08 10:43:10;;;;;;;7.70;3.15;;;25.50;78.30;;;;;;5070230;28;20041;-53
2021/03/08 10:45:38;;;;;;;8.25;3.22;;;25.50;78.10;;;;;;5070416;28;20422;-61
2021/03/08 10:48:24;;;;;;;7.22;2.60;;;25.50;78.00;;;;;;5066947;28;20078;-50
2021/03/08 10:51:09;;;;;;;6.60;2.10;;;25.40;78.10;;;;;;5072903;28;20021;-57
2021/03/08 10:57:25;;;;;;;6.70;2.60;;;25.40;78.10;;;;;;5002214;28;20037;-63
2021/03/08 10:59:54;;;;;;;5.07;2.15;;;25.40;78.10;;;;;;5046885;28;20032;-54
2021/03/08 11:02:22;;;;;;;5.72;2.40;;;25.30;78.00;;;;;;5069788;28;20487;-57
2021/03/08 11:05:11;;;;;;;7.25;2.55;;;25.30;78.00;;;;;;5069892;28;20049;-55
2021/03/08 11:07:39;;;;;;;8.15;2.65;;;25.30;78.10;;;;;;5065054;28;20107;-61
2021/03/08 11:10:09;;;;;;;5.53;1.98;;;25.30;77.90;;;;;;5070728;28;20289;-57
2021/03/08 11:12:45;;;;;;;6.57;2.03;;;25.30;78.10;;;;;;5070439;28;20020;-56
2021/03/08 11:15:23;;;;;;;4.82;2.60;;;25.20;78.10;;;;;;5069848;28;20210;-51
2021/03/08 11:17:50;;;;;;;5.75;2.08;;;25.20;78.00;;;;;;5063201;28;20466;-60
2021/03/08 11:20:22;;;;;;;6.75;2.10;;;25.20;77.90;;;;;;5069929;28;20442;-52
2021/03/08 11:23:03;;;;;;;5.85;2.05;;;25.20;77.90;;;;;;5066468;28;20059;-54
2021/03/08 11:25:42;;;;;;;4.85;2.70;;;25.20;77.90;;;;;;5068913;28;20071;-56
2021/03/08 11:28:15;;;;;;;6.57;1.73;;;25.20;77.90;;;;;;5065430;28;20034;-60
2021/03/08 11:30:52;;;;;;;4.95;2.33;;;25.20;78.00;;;;;;5069687;28;20024;-56
2021/03/08 11:33:21;;;;;;;4.55;2.03;;;25.20;77.90;;;;;;5068825;28;20062;-58
2021/03/08 11:35:55;;;;;;;7.65;2.78;;;25.20;78.00;;;;;;5068124;28;20082;-52
2021/03/08 11:38:24;;;;;;;3.20;1.65;;;25.20;78.00;;;;;;5064084;28;20029;-57
2021/03/08 11:40:53;;;;;;;8.18;2.45;;;25.10;78.00;;;;;;5067893;28;20027;-57
2021/03/08 11:43:23;;;;;;;4.22;2.05;;;25.10;78.00;;;;;;5070058;28;20074;-58
2021/03/08 11:45:52;;;;;;;7.00;2.25;;;25.10;78.30;;;;;;5069444;28;20071;-63
2021/03/08 11:48:27;;;;;;;6.93;2.42;;;25.10;78.50;;;;;;5065383;28;20031;-61
2021/03/08 11:50:55;;;;;;;3.88;2.10;;;25.10;78.30;;;;;;5068626;28;20039;-55
2021/03/08 11:53:22;;;;;;;6.80;2.60;;;25.10;78.10;;;;;;5069639;28;20379;-58
2021/03/08 11:55:50;;;;;;;5.18;2.05;;;25.00;78.10;;;;;;5068937;28;20029;-56
2021/03/08 11:58:20;;;;;;;4.15;1.67;;;25.00;78.20;;;;;;5065658;28;20685;-58
2021/03/08 12:00:48;;;;;;;7.10;1.90;;;25.00;78.40;;;;;;5069610;28;20056;-54
2021/03/08 12:03:15;;;;;;;5.75;1.60;;;25.00;78.40;;;;;;5069094;28;20027;-63
2021/03/08 12:05:42;;;;;;;8.27;2.58;;;25.00;78.40;;;;;;5072012;28;20403;-57
2021/03/08 12:08:10;;;;;;;9.05;2.00;;;25.00;78.40;;;;;;5069338;28;20030;-50
2021/03/08 12:10:37;;;;;;;5.43;2.05;;;25.00;78.40;;;;;;5073542;28;20898;-54
2021/03/08 12:13:05;;;;;;;5.25;2.10;;;25.00;78.50;;;;;;5071247;28;20016;-53
2021/03/08 12:15:32;;;;;;;6.82;1.88;;;25.00;78.40;;;;;;5069492;28;20435;-56
2021/03/08 12:17:59;;;;;;;4.72;1.77;;;25.00;78.40;;;;;;5069360;28;20048;-55
2021/03/08 12:20:27;;;;;;;6.57;2.15;;;25.00;78.40;;;;;;5073186;28;20127;-67
2021/03/08 12:22:54;;;;;;;5.90;2.00;;;24.90;78.50;;;;;;5072529;28;20024;-56
2021/03/08 12:25:21;;;;;;;5.43;2.05;;;25.00;78.50;;;;;;5073456;28;20048;-56
2021/03/08 12:27:49;;;;;;;4.38;1.85;;;25.00;78.30;;;;;;5068863;28;20510;-56
2021/03/08 12:30:16;;;;;;;3.22;1.50;;;25.00;78.40;;;;;;5072838;28;20060;-54
2021/03/08 12:32:44;;;;;;;3.20;1.73;;;25.00;78.30;;;;;;5073036;28;20029;-57
2021/03/08 12:35:12;;;;;;;6.75;1.70;;;25.00;78.80;;;;;;5073395;28;20093;-55
2021/03/08 12:37:39;;;;;;;5.32;1.83;;;25.00;78.30;;;;;;5064920;28;20149;-63
2021/03/08 12:40:07;;;;;;;5.20;1.63;;;24.90;78.20;;;;;;5072345;28;20517;-55
2021/03/08 12:42:35;;;;;;;5.13;1.58;;;24.90;78.20;;;;;;5072806;28;20028;-54
2021/03/08 12:45:02;;;;;;;2.85;1.75;;;24.90;78.10;;;;;;5073248;28;20103;-61
2021/03/08 12:47:30;;;;;;;5.40;1.90;;;24.90;78.20;;;;;;5065749;28;20020;-58
2021/03/08 12:49:57;;;;;;;5.40;1.65;;;24.90;78.10;;;;;;5073803;28;20032;-53
2021/03/08 12:52:24;;;;;;;3.95;2.00;;;24.90;78.10;;;;;;5074798;28;20078;-49
2021/03/08 12:54:52;;;;;;;2.85;1.48;;;24.90;78.10;;;;;;5075336;28;20024;-49
2021/03/08 12:57:19;;;;;;;3.03;1.60;;;24.90;78.10;;;;;;5074224;28;20028;-52
2021/03/08 12:59:46;;;;;;;8.43;2.08;;;24.90;78.10;;;;;;5075580;28;20396;-69
2021/03/08 13:02:14;;;;;;;2.92;1.50;;;24.90;78.10;;;;;;5074543;28;20050;-67
2021/03/08 13:04:41;;;;;;;3.03;1.42;;;24.90;78.20;;;;;;5074548;28;20040;-63
2021/03/08 13:07:08;;;;;;;3.22;1.40;;;24.80;78.00;;;;;;5074618;28;20028;-59
2021/03/08 13:09:35;;;;;;;6.70;2.17;;;24.80;78.00;;;;;;5074589;28;20503;-64
2021/03/08 13:12:03;;;;;;;3.97;1.42;;;24.80;78.10;;;;;;5074850;28;20028;-58
2021/03/08 13:14:30;;;;;;;5.95;1.88;;;24.80;78.20;;;;;;5074245;28;20052;-64